TimeAEST,TemperatureF,Dew PointF,Humidity,Sea Level PressureIn,VisibilityMPH,Wind Direction,Wind SpeedMPH,Gust SpeedMPH,PrecipitationIn,Events,Conditions,WindDirDegrees,DateUTC
12:00 AM,76,62,54,29.97,,NE,12.7,,,,,50,2013-10-12 14:00:00
12:00 AM,77.0,62.6,61,29.95,6.2,NE,12.7,-,N/A,,Scattered Clouds,50,2013-10-12 14:00:00
12:30 AM,75.2,62.6,65,29.95,6.2,NE,10.4,-,N/A,,Unknown,50,2013-10-12 14:30:00
1:00 AM,75,62,54,29.97,,NE,11.5,,,,,40,2013-10-12 15:00:00
1:00 AM,75.2,62.6,65,29.95,6.2,NE,11.5,-,N/A,,Scattered Clouds,40,2013-10-12 15:00:00
1:30 AM,75.2,64.4,69,29.95,6.2,NNE,9.2,-,N/A,,Scattered Clouds,30,2013-10-12 15:30:00
2:00 AM,75.2,62.6,65,29.92,6.2,NNE,8.1,-,N/A,,Scattered Clouds,30,2013-10-12 16:00:00
2:30 AM,73.4,62.6,69,29.92,6.2,NNE,6.9,-,N/A,,Scattered Clouds,20,2013-10-12 16:30:00
3:00 AM,72,63,65,29.93,,NNE,8.1,,,,,30,2013-10-12 17:00:00
3:00 AM,73.4,62.6,69,29.92,6.2,NNE,8.1,-,N/A,,Unknown,30,2013-10-12 17:00:00
3:30 AM,73.4,62.6,69,29.92,6.2,NNE,6.9,-,N/A,,Unknown,20,2013-10-12 17:30:00
4:00 AM,72,62,64,29.94,,NNE,5.8,,,,,20,2013-10-12 18:00:00
4:00 AM,71.6,62.6,73,29.92,6.2,NNE,5.8,-,N/A,,Unknown,20,2013-10-12 18:00:00
4:30 AM,71.6,62.6,73,29.92,6.2,NE,5.8,-,N/A,,Unknown,40,2013-10-12 18:30:00
5:00 AM,71.6,64.4,78,29.92,6.2,NE,1.2,-,N/A,,Unknown,40,2013-10-12 19:00:00
5:30 AM,68.0,60.8,78,29.95,6.2,Calm,Calm,-,N/A,,Unknown,0,2013-10-12 19:30:00
6:00 AM,70,63,72,29.96,16,SSW,4.6,,,,Haze,200,2013-10-12 20:00:00
6:00 AM,69.8,62.6,78,29.95,6.2,SSW,4.6,-,N/A,,Partly Cloudy,200,2013-10-12 20:00:00
6:30 AM,71.6,64.4,78,29.95,6.2,South,5.8,-,N/A,,Partly Cloudy,180,2013-10-12 20:30:00
7:00 AM,75,65,62,29.98,,South,2.3,,,,,170,2013-10-12 21:00:00
7:00 AM,75.2,64.4,69,29.95,6.2,South,2.3,-,N/A,,Partly Cloudy,170,2013-10-12 21:00:00
7:30 AM,77.0,66.2,69,29.98,6.2,NE,8.1,-,N/A,,Scattered Clouds,40,2013-10-12 21:30:00
8:00 AM,80.6,66.2,61,29.98,6.2,NNE,8.1,-,N/A,,Partly Cloudy,30,2013-10-12 22:00:00
8:30 AM,80.6,66.2,61,29.98,6.2,NE,13.8,-,N/A,,Partly Cloudy,50,2013-10-12 22:30:00
9:00 AM,83,67,50,29.99,19,ENE,15.0,,,,Haze,70,2013-10-12 23:00:00
9:00 AM,82.4,68.0,62,29.98,6.2,ENE,15.0,-,N/A,,Partly Cloudy,70,2013-10-12 23:00:00
9:30 AM,84.2,66.2,55,29.98,6.2,ENE,16.1,-,N/A,,Partly Cloudy,70,2013-10-12 23:30:00
10:00 AM,83,67,50,29.99,,East,15.0,,,,,80,2013-10-13 00:00:00
10:00 AM,82.4,68.0,62,29.98,6.2,East,15.0,-,N/A,,Partly Cloudy,80,2013-10-13 00:00:00
10:30 AM,84.2,68.0,58,29.95,6.2,ENE,16.1,-,N/A,,Partly Cloudy,60,2013-10-13 00:30:00
11:00 AM,84.2,68.0,58,29.95,6.2,ENE,17.3,-,N/A,,Partly Cloudy,70,2013-10-13 01:00:00
11:30 AM,84.2,68.0,58,29.95,6.2,ENE,16.1,-,N/A,,Scattered Clouds,60,2013-10-13 01:30:00
12:00 PM,84,68,50,29.95,19,ENE,17.3,,,,Haze,60,2013-10-13 02:00:00
12:00 PM,84.2,68.0,58,29.95,6.2,ENE,17.3,-,N/A,,Scattered Clouds,60,2013-10-13 02:00:00
12:30 PM,82.4,68.0,62,29.92,6.2,ENE,17.3,-,N/A,,Scattered Clouds,60,2013-10-13 02:30:00
1:00 PM,85,69,49,29.94,,ENE,17.3,,,,,70,2013-10-13 03:00:00
1:00 PM,86.0,68.0,55,29.92,6.2,ENE,17.3,-,N/A,,Scattered Clouds,70,2013-10-13 03:00:00
1:30 PM,82.4,69.8,66,29.89,6.2,ENE,18.4,-,N/A,,Scattered Clouds,70,2013-10-13 03:30:00
2:00 PM,82.4,68.0,62,29.89,6.2,ENE,17.3,-,N/A,,Partly Cloudy,70,2013-10-13 04:00:00
2:30 PM,82.4,68.0,62,29.89,6.2,ENE,17.3,-,N/A,,Scattered Clouds,60,2013-10-13 04:30:00
3:00 PM,80.6,69.8,70,29.86,6.2,ENE,18.4,-,N/A,,Scattered Clouds,60,2013-10-13 05:00:00
3:30 PM,80.6,69.8,70,29.86,6.2,ENE,19.6,-,N/A,,Scattered Clouds,60,2013-10-13 05:30:00
4:00 PM,81,70,62,29.88,,ENE,18.4,,,,,60,2013-10-13 06:00:00
4:00 PM,80.6,69.8,70,29.86,6.2,ENE,18.4,-,N/A,,Scattered Clouds,60,2013-10-13 06:00:00
4:30 PM,78.8,69.8,74,29.86,6.2,ENE,19.6,-,N/A,,Scattered Clouds,60,2013-10-13 06:30:00
5:00 PM,78.8,69.8,74,29.86,6.2,ENE,16.1,-,N/A,,Scattered Clouds,60,2013-10-13 07:00:00
5:30 PM,78.8,71.6,78,29.89,6.2,ENE,15.0,-,N/A,,Scattered Clouds,60,2013-10-13 07:30:00
6:00 PM,78,71,72,29.90,16,ENE,15.0,,,,Haze,60,2013-10-13 08:00:00
6:00 PM,78.8,71.6,78,29.89,6.2,ENE,15.0,-,N/A,,Scattered Clouds,60,2013-10-13 08:00:00
6:30 PM,78.8,71.6,78,29.89,6.2,ENE,12.7,-,N/A,,Scattered Clouds,60,2013-10-13 08:30:00
7:00 PM,78,71,74,29.93,,ENE,11.5,,,,,60,2013-10-13 09:00:00
7:00 PM,78.8,71.6,78,29.92,6.2,ENE,11.5,-,N/A,,Scattered Clouds,60,2013-10-13 09:00:00
7:30 PM,77.0,71.6,83,29.92,6.2,NE,10.4,-,N/A,,Scattered Clouds,50,2013-10-13 09:30:00
8:00 PM,77.0,71.6,83,29.92,6.2,NE,8.1,-,N/A,,Scattered Clouds,50,2013-10-13 10:00:00
8:30 PM,78.8,69.8,74,29.92,6.2,NE,8.1,-,N/A,,Partly Cloudy,40,2013-10-13 10:30:00
9:00 PM,76,70,76,29.95,12,NNE,6.9,,,,Haze,20,2013-10-13 11:00:00
9:00 PM,77.0,69.8,78,29.95,6.2,NNE,6.9,-,N/A,,Partly Cloudy,20,2013-10-13 11:00:00
9:30 PM,77.0,69.8,78,29.95,6.2,NNE,6.9,-,N/A,,Partly Cloudy,30,2013-10-13 11:30:00
10:00 PM,75,69,78,29.96,,NE,5.8,,,,,40,2013-10-13 12:00:00
10:00 PM,75.2,69.8,83,29.95,6.2,NE,5.8,-,N/A,,Partly Cloudy,40,2013-10-13 12:00:00
10:30 PM,77.0,69.8,78,29.95,6.2,NNE,5.8,-,N/A,,Partly Cloudy,20,2013-10-13 12:30:00
11:00 PM,77.0,69.8,78,29.92,6.2,North,5.8,-,N/A,,Mostly Cloudy,10,2013-10-13 13:00:00
11:30 PM,77.0,69.8,78,29.92,6.2,NNE,8.1,-,N/A,,Unknown,20,2013-10-13 13:30:00